Time;durP1;ratioP1;P1;durP2;ratioP2;P2;SDS_P1;SDS_P2;PMS_P1;PMS_P2;Temp;Humidity;BMP_temperature;BMP_pressure;BME280_temperature;BME280_humidity;BME280_pressure;Samples;Min_cycle;Max_cycle;Signal;HPM_P1;HPM_P2
2020/12/27 00:00:49;;;;;;;11.00;4.05;;;3.30;63.80;;;;;;5029432;28;80806;-71
2020/12/27 00:03:16;;;;;;;5.82;3.63;;;3.20;63.90;;;;;;5029247;28;79962;-73
2020/12/27 00:05:44;;;;;;;7.82;3.80;;;3.20;64.00;;;;;;5029115;28;81277;-73
2020/12/27 00:08:09;;;;;;;8.88;3.63;;;3.20;64.10;;;;;;5010701;28;82493;-74
2020/12/27 00:10:35;;;;;;;9.55;4.70;;;3.10;64.10;;;;;;5011050;28;82827;-73
2020/12/27 00:13:01;;;;;;;7.10;3.80;;;3.10;64.20;;;;;;5028982;28;80469;-72
2020/12/27 00:15:26;;;;;;;6.40;4.00;;;3.10;64.30;;;;;;5029014;28;79787;-74
2020/12/27 00:17:52;;;;;;;10.90;4.65;;;3.00;64.60;;;;;;5028854;28;79680;-74
2020/12/27 00:20:18;;;;;;;10.07;4.10;;;2.90;64.70;;;;;;5028783;28;79880;-73
2020/12/27 00:22:44;;;;;;;8.48;4.50;;;2.90;64.80;;;;;;5028801;28;80060;-74
2020/12/27 00:25:10;;;;;;;7.10;4.07;;;2.90;65.00;;;;;;5009825;28;85251;-73
2020/12/27 00:27:36;;;;;;;6.85;3.92;;;2.90;64.90;;;;;;5010307;28;81305;-71
2020/12/27 00:30:03;;;;;;;9.68;4.57;;;2.90;65.10;;;;;;5010384;28;82536;-74
2020/12/27 00:32:29;;;;;;;8.13;4.60;;;2.80;65.30;;;;;;5010143;28;81744;-71
2020/12/27 00:34:55;;;;;;;11.40;4.75;;;2.80;65.20;;;;;;5010150;28;80734;-72
2020/12/27 00:37:22;;;;;;;10.20;4.30;;;2.80;65.40;;;;;;5028452;28;80103;-72
2020/12/27 00:39:49;;;;;;;10.27;4.75;;;2.80;65.50;;;;;;5028255;28;81069;-71
2020/12/27 00:42:15;;;;;;;11.20;4.28;;;2.80;65.50;;;;;;5027747;27;80517;-71
2020/12/27 00:44:41;;;;;;;11.68;4.97;;;2.80;65.60;;;;;;5009602;28;83899;-71
2020/12/27 00:47:06;;;;;;;11.05;4.90;;;2.80;65.70;;;;;;5009768;28;81445;-71
2020/12/27 00:49:32;;;;;;;9.68;4.68;;;2.80;65.90;;;;;;5009694;28;82663;-71
2020/12/27 00:51:58;;;;;;;9.48;3.70;;;2.80;66.00;;;;;;5027139;28;80199;-71
2020/12/27 00:54:24;;;;;;;8.93;5.30;;;2.80;66.00;;;;;;5009890;28;80774;-72
2020/12/27 00:56:51;;;;;;;10.25;4.93;;;2.80;66.00;;;;;;5009571;28;80120;-72
2020/12/27 00:59:17;;;;;;;12.25;5.15;;;2.90;66.10;;;;;;5009623;28;79848;-71
2020/12/27 01:01:43;;;;;;;8.25;4.35;;;2.90;65.90;;;;;;5010092;28;83095;-71
2020/12/27 01:04:08;;;;;;;8.38;4.78;;;2.90;65.90;;;;;;5028165;28;80476;-70
2020/12/27 01:06:35;;;;;;;9.32;4.78;;;2.90;65.90;;;;;;5009552;28;83003;-71
2020/12/27 01:09:00;;;;;;;8.40;5.43;;;2.90;66.00;;;;;;5009164;28;82029;-72
2020/12/27 01:11:26;;;;;;;9.90;5.13;;;2.90;66.10;;;;;;5027822;28;80312;-70
2020/12/27 01:13:52;;;;;;;8.80;5.22;;;2.90;66.10;;;;;;5009371;28;83530;-70
2020/12/27 01:16:21;;;;;;;10.80;5.55;;;2.90;66.20;;;;;;5009754;28;82490;-71
2020/12/27 01:18:48;;;;;;;9.50;4.97;;;2.90;66.10;;;;;;5027620;28;80725;-71
2020/12/27 01:21:29;;;;;;;10.63;5.35;;;2.90;66.20;;;;;;5009534;28;82213;-72
2020/12/27 01:23:55;;;;;;;10.15;5.63;;;2.90;66.30;;;;;;5026930;28;79717;-71
2020/12/27 01:26:34;;;;;;;16.50;5.82;;;2.90;66.40;;;;;;5028070;28;79757;-71
2020/12/27 01:29:00;;;;;;;12.38;5.72;;;2.90;66.60;;;;;;5009183;28;82767;-71
2020/12/27 01:31:26;;;;;;;12.40;5.35;;;2.90;66.60;;;;;;5008953;28;80465;-70
2020/12/27 01:33:53;;;;;;;13.45;5.68;;;2.90;66.70;;;;;;5027869;28;81124;-70
2020/12/27 01:36:29;;;;;;;14.32;5.45;;;2.80;66.90;;;;;;5027465;28;80846;-70
2020/12/27 01:38:59;;;;;;;11.27;5.53;;;2.90;67.10;;;;;;5027120;28;80789;-71
2020/12/27 01:41:25;;;;;;;11.30;5.72;;;2.90;67.10;;;;;;5003130;28;81027;-71
2020/12/27 01:43:59;;;;;;;10.30;5.32;;;2.90;67.20;;;;;;5009150;28;81777;-71
2020/12/27 01:46:25;;;;;;;14.20;5.40;;;2.90;67.40;;;;;;5008955;28;80479;-70
2020/12/27 01:48:51;;;;;;;12.55;5.63;;;2.90;67.40;;;;;;5009203;28;83690;-70
2020/12/27 01:51:17;;;;;;;14.13;5.30;;;2.90;67.60;;;;;;5008894;28;83620;-70
2020/12/27 01:53:42;;;;;;;15.10;6.00;;;2.90;67.70;;;;;;5008324;28;82861;-72
2020/12/27 01:56:11;;;;;;;10.18;5.10;;;2.90;67.70;;;;;;5007971;28;83095;-71
2020/12/27 01:58:39;;;;;;;13.32;6.07;;;2.90;67.70;;;;;;5008604;28;82042;-71
2020/12/27 02:01:06;;;;;;;12.80;5.45;;;2.90;67.80;;;;;;5008895;28;81699;-71
2020/12/27 02:03:33;;;;;;;9.52;4.65;;;2.80;67.90;;;;;;5027383;28;80018;-70
2020/12/27 02:05:58;;;;;;;9.15;4.53;;;2.80;67.90;;;;;;5008723;28;81499;-70
2020/12/27 02:08:25;;;;;;;8.63;4.35;;;2.80;67.80;;;;;;5026846;28;80889;-70
2020/12/27 02:10:51;;;;;;;9.95;4.80;;;2.80;67.70;;;;;;5027299;28;80279;-72
2020/12/27 02:13:17;;;;;;;10.27;5.40;;;2.80;67.70;;;;;;5008596;28;80926;-72
2020/12/27 02:15:43;;;;;;;8.77;4.63;;;2.70;67.70;;;;;;5008630;28;80595;-73
2020/12/27 02:18:09;;;;;;;11.77;4.65;;;2.70;67.70;;;;;;5008810;28;80952;-70
2020/12/27 02:20:34;;;;;;;9.77;5.03;;;2.70;67.90;;;;;;5008312;28;79956;-73
2020/12/27 02:23:00;;;;;;;9.45;4.88;;;2.60;67.90;;;;;;5026955;28;80621;-72
2020/12/27 02:25:26;;;;;;;9.05;4.35;;;2.60;67.90;;;;;;5026504;28;79934;-72
2020/12/27 02:27:52;;;;;;;9.13;4.75;;;2.60;67.90;;;;;;5026552;28;80030;-71
2020/12/27 02:30:17;;;;;;;11.70;5.15;;;2.60;68.10;;;;;;5026877;28;79834;-68
2020/12/27 02:32:43;;;;;;;11.90;5.70;;;2.70;68.30;;;;;;5006976;28;81726;-73
2020/12/27 02:35:09;;;;;;;11.65;5.07;;;2.60;68.30;;;;;;5027250;28;79694;-70
2020/12/27 02:37:35;;;;;;;14.35;6.20;;;2.60;68.40;;;;;;5026618;28;80828;-70
2020/12/27 02:40:00;;;;;;;10.85;5.78;;;2.60;68.50;;;;;;5007763;28;82336;-70
2020/12/27 02:42:26;;;;;;;9.40;4.45;;;2.60;68.60;;;;;;5007755;28;82969;-73
2020/12/27 02:45:10;;;;;;;8.48;4.63;;;2.60;68.30;;;;;;5007997;28;80989;-69
2020/12/27 02:47:40;;;;;;;8.38;3.53;;;2.60;68.10;;;;;;5026810;28;81066;-70
2020/12/27 02:50:13;;;;;;;7.32;3.80;;;2.50;67.90;;;;;;5026428;28;80124;-72
2020/12/27 02:52:39;;;;;;;6.60;3.55;;;2.50;67.90;;;;;;5007858;28;80914;-71
2020/12/27 02:55:06;;;;;;;9.57;3.92;;;2.40;67.80;;;;;;5007957;28;80153;-70
2020/12/27 02:57:32;;;;;;;6.80;3.55;;;2.40;67.70;;;;;;5026365;28;80826;-70
2020/12/27 02:59:58;;;;;;;10.25;4.05;;;2.40;67.70;;;;;;5007693;28;81210;-70
2020/12/27 03:02:23;;;;;;;7.15;4.55;;;2.40;67.60;;;;;;5007573;28;82218;-69
2020/12/27 03:04:49;;;;;;;6.60;4.00;;;2.40;67.50;;;;;;5026436;28;80033;-70
2020/12/27 03:07:15;;;;;;;7.07;4.10;;;2.30;67.60;;;;;;5007178;28;80723;-72
2020/12/27 03:09:41;;;;;;;11.43;4.18;;;2.20;67.70;;;;;;5007869;28;80626;-72
2020/12/27 03:12:06;;;;;;;7.75;4.00;;;2.20;67.80;;;;;;5026010;28;79731;-70
2020/12/27 03:14:32;;;;;;;5.05;3.40;;;2.20;67.80;;;;;;5007655;28;81565;-71
2020/12/27 03:16:58;;;;;;;8.60;4.07;;;2.20;67.80;;;;;;5007713;28;83027;-72
2020/12/27 03:19:23;;;;;;;9.10;4.20;;;2.20;67.80;;;;;;5007617;28;80589;-71
2020/12/27 03:21:49;;;;;;;8.75;4.25;;;2.20;67.90;;;;;;5007893;28;80816;-71
2020/12/27 03:24:16;;;;;;;8.15;3.78;;;2.20;67.80;;;;;;5006736;28;82052;-72
2020/12/27 03:26:42;;;;;;;6.50;3.72;;;2.20;67.70;;;;;;5025877;28;80569;-72
2020/12/27 03:29:08;;;;;;;8.02;4.43;;;2.10;67.60;;;;;;5007248;28;80605;-72
2020/12/27 03:31:33;;;;;;;7.10;3.67;;;2.00;67.70;;;;;;5026049;28;80665;-73
2020/12/27 03:33:59;;;;;;;8.05;4.10;;;2.00;67.70;;;;;;5025975;28;80399;-72
2020/12/27 03:36:25;;;;;;;10.30;4.30;;;1.90;67.70;;;;;;5025761;28;80483;-72
2020/12/27 03:38:52;;;;;;;6.90;4.20;;;1.90;67.80;;;;;;5007396;28;81617;-72
2020/12/27 03:41:19;;;;;;;7.78;4.18;;;1.80;67.90;;;;;;5007505;28;83413;-73
2020/12/27 03:43:45;;;;;;;9.88;4.53;;;1.80;68.00;;;;;;5025845;28;80778;-73
2020/12/27 03:46:12;;;;;;;7.63;4.30;;;1.70;68.30;;;;;;5025933;28;79851;-72
2020/12/27 03:48:38;;;;;;;7.03;3.80;;;1.60;68.40;;;;;;5025787;28;80445;-73
2020/12/27 03:51:03;;;;;;;7.80;3.70;;;1.50;68.40;;;;;;5025666;28;80394;-74
2020/12/27 03:53:29;;;;;;;7.72;3.67;;;1.50;68.50;;;;;;5025279;28;80099;-73
2020/12/27 03:55:55;;;;;;;7.18;3.55;;;1.50;68.50;;;;;;5025998;28;80001;-73
2020/12/27 03:58:21;;;;;;;7.50;3.55;;;1.40;68.60;;;;;;5025099;28;80042;-73
2020/12/27 04:00:46;;;;;;;7.95;3.85;;;1.40;68.60;;;;;;5007676;28;83241;-73
2020/12/27 04:03:12;;;;;;;7.53;3.80;;;1.40;68.80;;;;;;5026168;28;80897;-74
2020/12/27 04:05:38;;;;;;;7.88;3.25;;;1.30;69.00;;;;;;5025506;28;80411;-71
2020/12/27 04:08:03;;;;;;;7.28;3.90;;;1.30;69.10;;;;;;5025336;28;80164;-72
2020/12/27 04:10:29;;;;;;;7.78;4.40;;;1.20;69.10;;;;;;5006839;28;83920;-72
2020/12/27 04:12:55;;;;;;;8.43;3.95;;;1.30;69.20;;;;;;5025437;28;80171;-73
2020/12/27 04:15:21;;;;;;;8.57;4.28;;;1.20;69.10;;;;;;5025161;28;80526;-72
2020/12/27 04:17:47;;;;;;;6.88;4.05;;;1.20;69.20;;;;;;5025688;28;80123;-72
2020/12/27 04:20:12;;;;;;;6.47;3.70;;;1.10;69.30;;;;;;5029151;28;80012;-71
2020/12/27 04:22:38;;;;;;;11.18;4.47;;;1.00;69.60;;;;;;5028438;28;79974;-71
2020/12/27 04:25:04;;;;;;;6.32;3.70;;;1.00;69.70;;;;;;5028936;28;80694;-70
2020/12/27 04:27:29;;;;;;;6.45;4.05;;;1.00;69.70;;;;;;5010415;28;81628;-72
2020/12/27 04:29:55;;;;;;;6.28;3.67;;;1.00;69.80;;;;;;5029128;28;80017;-71
2020/12/27 04:32:24;;;;;;;7.05;3.95;;;0.90;69.70;;;;;;5028869;28;79772;-71
2020/12/27 04:34:49;;;;;;;9.30;3.92;;;1.00;69.70;;;;;;5009699;28;83000;-71
2020/12/27 04:37:15;;;;;;;9.00;4.38;;;0.90;69.70;;;;;;5028811;28;80253;-71
2020/12/27 04:39:41;;;;;;;7.93;4.50;;;0.90;69.70;;;;;;5028315;28;80599;-71
2020/12/27 04:42:08;;;;;;;9.55;4.35;;;0.90;69.80;;;;;;5028842;28;80283;-70
2020/12/27 04:44:36;;;;;;;12.00;4.32;;;0.90;69.80;;;;;;5009923;28;82426;-71
2020/12/27 04:47:02;;;;;;;8.27;4.72;;;1.00;69.80;;;;;;5028206;28;80064;-71
2020/12/27 04:49:29;;;;;;;10.00;4.25;;;1.00;69.80;;;;;;5028236;28;79614;-73
2020/12/27 04:51:59;;;;;;;9.57;4.20;;;1.00;69.70;;;;;;5028214;28;80185;-72
2020/12/27 04:54:27;;;;;;;8.68;3.95;;;1.10;69.60;;;;;;5010062;28;82201;-73
2020/12/27 04:56:55;;;;;;;9.55;4.13;;;1.10;69.60;;;;;;5009585;28;81462;-72
2020/12/27 04:59:20;;;;;;;8.68;4.40;;;1.10;69.50;;;;;;5009863;28;82848;-70
2020/12/27 05:01:46;;;;;;;7.00;4.07;;;1.10;69.50;;;;;;5028253;28;80139;-71
2020/12/27 05:04:18;;;;;;;8.63;4.25;;;1.10;69.50;;;;;;5009599;28;83440;-72
2020/12/27 05:06:48;;;;;;;9.60;3.95;;;1.20;69.40;;;;;;5009484;28;81534;-71
2020/12/27 05:09:14;;;;;;;7.68;4.38;;;1.10;69.50;;;;;;5027114;28;80433;-72
2020/12/27 05:11:40;;;;;;;9.88;4.93;;;1.10;69.40;;;;;;5028310;28;79733;-71
2020/12/27 05:14:06;;;;;;;6.90;4.18;;;1.10;69.50;;;;;;5009501;28;82845;-72
2020/12/27 05:16:32;;;;;;;8.60;4.63;;;1.00;69.50;;;;;;5009514;28;80025;-72
2020/12/27 05:18:59;;;;;;;7.78;4.28;;;1.00;69.60;;;;;;5028134;28;81093;-71
2020/12/27 05:21:26;;;;;;;8.32;4.57;;;1.00;69.60;;;;;;5009208;28;84141;-71
2020/12/27 05:23:52;;;;;;;9.68;4.65;;;1.00;69.60;;;;;;5027881;28;81144;-71
2020/12/27 05:26:27;;;;;;;10.13;4.63;;;0.90;69.60;;;;;;5027777;28;80227;-71
2020/12/27 05:28:52;;;;;;;10.48;4.47;;;1.00;69.70;;;;;;5009258;28;82713;-71
2020/12/27 05:31:18;;;;;;;8.13;4.70;;;1.00;69.50;;;;;;5027540;28;80366;-72
2020/12/27 05:33:44;;;;;;;9.55;4.78;;;1.00;69.50;;;;;;5027417;28;82398;-71
2020/12/27 05:36:13;;;;;;;9.80;4.28;;;1.00;69.50;;;;;;5027797;28;81252;-71
2020/12/27 05:38:45;;;;;;;15.73;4.82;;;1.00;69.50;;;;;;5027234;28;81768;-72
2020/12/27 05:41:10;;;;;;;9.02;5.05;;;1.00;69.40;;;;;;5027730;28;80179;-71
2020/12/27 05:43:39;;;;;;;10.20;5.07;;;1.00;69.40;;;;;;5027136;28;82262;-70
2020/12/27 05:46:07;;;;;;;8.85;5.22;;;1.00;69.40;;;;;;5027619;28;80823;-71
2020/12/27 05:48:33;;;;;;;10.15;5.05;;;0.90;69.40;;;;;;5008793;28;83612;-72
2020/12/27 05:51:03;;;;;;;8.07;4.65;;;0.90;69.50;;;;;;5027701;28;80021;-73
2020/12/27 05:53:34;;;;;;;8.43;5.03;;;0.90;69.60;;;;;;5027055;28;80623;-71
2020/12/27 05:56:00;;;;;;;12.07;5.50;;;0.90;69.70;;;;;;5027796;28;80216;-70
2020/12/27 05:58:27;;;;;;;7.85;4.35;;;0.90;69.70;;;;;;5026821;28;80751;-71
2020/12/27 06:00:54;;;;;;;10.93;5.38;;;0.90;69.70;;;;;;5027538;28;80194;-71
2020/12/27 06:03:26;;;;;;;9.73;5.65;;;0.90;69.70;;;;;;5008150;28;83488;-70
2020/12/27 06:05:52;;;;;;;10.20;5.30;;;0.80;69.70;;;;;;5027038;28;80277;-70
2020/12/27 06:08:33;;;;;;;10.40;5.23;;;0.80;69.80;;;;;;5027205;28;80590;-71
2020/12/27 06:11:05;;;;;;;12.97;6.17;;;0.80;70.00;;;;;;5027253;28;80219;-70
2020/12/27 06:13:53;;;;;;;13.15;5.82;;;0.70;69.90;;;;;;5008610;28;83673;-70
2020/12/27 06:16:33;;;;;;;10.57;5.93;;;0.80;70.00;;;;;;5027384;28;79967;-70
2020/12/27 06:19:25;;;;;;;10.77;5.13;;;0.70;70.20;;;;;;5009010;28;83494;-70
2020/12/27 06:22:10;;;;;;;14.30;6.67;;;0.80;70.30;;;;;;4962439;28;83719;-70
2020/12/27 06:24:37;;;;;;;9.23;5.30;;;0.80;70.40;;;;;;5026590;28;81141;-70
2020/12/27 06:27:06;;;;;;;10.10;5.90;;;0.70;70.50;;;;;;5008568;28;81633;-68
2020/12/27 06:29:36;;;;;;;12.33;6.53;;;0.70;70.50;;;;;;5007757;28;84215;-69
2020/12/27 06:32:05;;;;;;;12.27;5.93;;;0.80;70.50;;;;;;5026828;28;80276;-71
2020/12/27 06:34:31;;;;;;;13.20;5.68;;;0.80;70.50;;;;;;5026557;28;81165;-72
2020/12/27 06:37:00;;;;;;;9.95;5.15;;;0.80;70.50;;;;;;5007860;28;84188;-70
2020/12/27 06:39:30;;;;;;;11.30;5.90;;;0.80;70.50;;;;;;5007888;28;81608;-70
2020/12/27 06:42:16;;;;;;;9.27;4.70;;;0.90;70.50;;;;;;5007488;28;80480;-70
2020/12/27 06:44:52;;;;;;;10.67;5.70;;;0.90;70.50;;;;;;5026474;28;80847;-70
2020/12/27 06:47:18;;;;;;;11.98;5.57;;;0.90;70.40;;;;;;5024271;28;80468;-70
2020/12/27 06:49:45;;;;;;;14.30;6.03;;;0.90;70.40;;;;;;5026899;28;81131;-71
2020/12/27 06:52:19;;;;;;;11.38;6.13;;;0.90;70.40;;;;;;5026311;28;79948;-71
2020/12/27 06:54:55;;;;;;;9.77;5.17;;;0.90;70.40;;;;;;5008120;28;83597;-73
2020/12/27 06:57:41;;;;;;;10.80;5.28;;;0.90;70.40;;;;;;5007694;28;81429;-73
2020/12/27 07:00:19;;;;;;;10.02;5.35;;;0.90;70.30;;;;;;5008179;28;83215;-72
2020/12/27 07:02:45;;;;;;;10.70;5.03;;;0.90;70.30;;;;;;5026098;28;80232;-71
2020/12/27 07:05:29;;;;;;;10.68;5.63;;;0.90;70.20;;;;;;5026355;28;80765;-71
2020/12/27 07:07:56;;;;;;;11.05;5.35;;;0.90;70.30;;;;;;5007901;28;83154;-71
2020/12/27 07:10:23;;;;;;;10.07;5.03;;;0.80;70.30;;;;;;5008044;28;81746;-72
2020/12/27 07:12:49;;;;;;;11.10;5.72;;;0.80;70.40;;;;;;5008566;28;83246;-72
2020/12/27 07:15:15;;;;;;;10.98;5.47;;;0.80;70.40;;;;;;5026067;28;80064;-72
2020/12/27 07:17:42;;;;;;;12.10;5.47;;;0.80;70.40;;;;;;5008077;28;80652;-71
2020/12/27 07:20:17;;;;;;;11.13;6.30;;;0.80;70.40;;;;;;5025988;28;80605;-73
2020/12/27 07:22:43;;;;;;;9.90;5.85;;;0.80;70.40;;;;;;5007670;28;82294;-74
2020/12/27 07:25:15;;;;;;;10.98;5.63;;;0.80;70.30;;;;;;5025729;28;80909;-72
2020/12/27 07:27:42;;;;;;;11.25;6.22;;;0.80;70.40;;;;;;5026029;28;80340;-71
2020/12/27 07:30:10;;;;;;;26.00;7.07;;;0.80;70.30;;;;;;5026361;28;80192;-73
2020/12/27 07:32:47;;;;;;;11.35;6.40;;;0.80;70.30;;;;;;5007189;28;82522;-73
2020/12/27 07:35:13;;;;;;;14.93;6.05;;;0.80;70.50;;;;;;5026016;28;80642;-72
2020/12/27 07:37:43;;;;;;;13.07;6.30;;;0.90;70.40;;;;;;5025991;28;80178;-70
2020/12/27 07:40:11;;;;;;;12.00;6.57;;;0.90;70.30;;;;;;5025843;28;80559;-71
2020/12/27 07:42:37;;;;;;;12.45;7.25;;;0.90;70.20;;;;;;5025808;28;80203;-72
2020/12/27 07:45:12;;;;;;;11.45;6.30;;;0.90;70.20;;;;;;5005698;28;84466;-71
2020/12/27 07:47:41;;;;;;;13.90;6.03;;;0.90;70.30;;;;;;5025596;28;80475;-69
2020/12/27 07:50:12;;;;;;;11.00;6.07;;;0.90;70.30;;;;;;5007735;28;80964;-71
2020/12/27 07:52:41;;;;;;;13.07;6.32;;;0.90;70.50;;;;;;5027894;28;80302;-70
2020/12/27 07:55:06;;;;;;;12.55;6.68;;;0.90;70.40;;;;;;5010883;28;83997;-70
2020/12/27 07:57:32;;;;;;;14.18;8.05;;;1.00;70.40;;;;;;5010619;28;81480;-70
2020/12/27 08:00:07;;;;;;;16.98;7.65;;;1.10;70.40;;;;;;5010272;28;82487;-70
2020/12/27 08:02:33;;;;;;;15.32;7.10;;;1.00;70.60;;;;;;5029208;28;80153;-71
2020/12/27 08:05:03;;;;;;;12.15;6.13;;;1.10;70.60;;;;;;5010606;28;81748;-71
2020/12/27 08:07:29;;;;;;;17.70;7.53;;;1.20;70.60;;;;;;5029381;28;79907;-71
2020/12/27 08:09:55;;;;;;;20.55;7.78;;;1.20;70.60;;;;;;5029140;28;81218;-72
2020/12/27 08:12:21;;;;;;;16.23;6.95;;;1.20;70.70;;;;;;5010550;28;83425;-71
2020/12/27 08:14:47;;;;;;;12.95;6.97;;;1.30;70.70;;;;;;5010824;28;83752;-70
2020/12/27 08:17:16;;;;;;;18.20;8.32;;;1.30;70.60;;;;;;5010816;28;83203;-70
2020/12/27 08:19:43;;;;;;;16.50;8.20;;;1.40;70.60;;;;;;5029045;28;80604;-70
2020/12/27 08:22:08;;;;;;;12.77;6.85;;;1.40;70.40;;;;;;5009975;28;82656;-72
2020/12/27 08:24:34;;;;;;;12.65;6.07;;;1.50;70.40;;;;;;5008597;28;83585;-72
2020/12/27 08:27:00;;;;;;;10.63;5.60;;;1.50;70.20;;;;;;5028316;28;80425;-71
2020/12/27 08:29:26;;;;;;;11.30;5.88;;;1.60;70.00;;;;;;5028698;28;80600;-71
2020/12/27 08:32:05;;;;;;;11.23;5.82;;;1.70;69.70;;;;;;5029109;28;80865;-72
2020/12/27 08:34:32;;;;;;;9.95;6.00;;;1.80;69.50;;;;;;5028461;28;81315;-72
2020/12/27 08:36:59;;;;;;;13.55;7.13;;;1.90;69.40;;;;;;5028653;28;80046;-71
2020/12/27 08:39:43;;;;;;;19.13;7.75;;;1.90;69.30;;;;;;5009993;28;83678;-71
2020/12/27 08:42:09;;;;;;;15.00;8.02;;;2.00;69.20;;;;;;5010158;28;82025;-71
2020/12/27 08:44:59;;;;;;;14.65;7.25;;;2.10;69.00;;;;;;5010474;28;80873;-71
2020/12/27 08:47:27;;;;;;;13.68;7.30;;;2.30;68.70;;;;;;5028444;28;80674;-73
2020/12/27 08:50:08;;;;;;;17.00;7.25;;;2.40;68.40;;;;;;5028493;28;80937;-70
2020/12/27 08:52:35;;;;;;;13.07;6.82;;;2.60;68.10;;;;;;5028439;28;79679;-71
2020/12/27 08:55:06;;;;;;;13.15;7.05;;;2.80;67.60;;;;;;5009897;28;83173;-71
2020/12/27 08:57:32;;;;;;;15.57;7.07;;;2.90;67.20;;;;;;5028298;28;80318;-71
2020/12/27 08:59:59;;;;;;;18.23;8.15;;;3.00;66.80;;;;;;5028624;28;79934;-71
2020/12/27 09:02:25;;;;;;;15.88;7.35;;;3.10;66.50;;;;;;5028264;28;79912;-71
2020/12/27 09:05:05;;;;;;;14.32;7.93;;;3.10;66.40;;;;;;5027544;28;80447;-71
2020/12/27 09:07:35;;;;;;;15.35;7.57;;;3.20;66.30;;;;;;5027874;28;81465;-70
2020/12/27 09:10:10;;;;;;;15.95;7.53;;;3.40;66.10;;;;;;5009455;28;84109;-69
2020/12/27 09:12:37;;;;;;;13.23;7.57;;;3.40;66.00;;;;;;5009935;28;83316;-70
2020/12/27 09:15:22;;;;;;;14.77;7.53;;;3.40;65.90;;;;;;5028218;28;82203;-71
2020/12/27 09:17:54;;;;;;;12.52;7.05;;;3.50;65.80;;;;;;5028413;28;79759;-73
2020/12/27 09:20:22;;;;;;;13.20;7.15;;;3.50;65.80;;;;;;5027790;28;80361;-74
2020/12/27 09:22:48;;;;;;;12.82;7.60;;;3.70;65.60;;;;;;5028278;28;80216;-72
2020/12/27 09:25:20;;;;;;;13.23;7.07;;;3.90;65.10;;;;;;5027443;28;82713;-71
2020/12/27 09:27:48;;;;;;;19.53;7.67;;;4.20;64.40;;;;;;5010250;28;80315;-71
2020/12/27 09:30:19;;;;;;;16.10;6.30;;;4.70;63.30;;;;;;5009621;28;82010;-71
2020/12/27 09:32:45;;;;;;;13.60;6.50;;;4.90;62.30;;;;;;5027441;28;80109;-71
2020/12/27 09:35:19;;;;;;;11.50;6.65;;;5.00;61.70;;;;;;5027856;28;81250;-72
2020/12/27 09:37:44;;;;;;;;;;;5.30;61.00;;;;;;5028085;28;80404;-70
2020/12/27 09:40:11;;;;;;;10.10;5.65;;;5.60;60.80;;;;;;5032856;28;75100;-70
2020/12/27 09:42:36;;;;;;;15.85;7.30;;;5.80;59.20;;;;;;5009803;28;79851;-73
2020/12/27 09:45:22;;;;;;;11.88;5.53;;;6.00;58.40;;;;;;5027330;28;80565;-70
2020/12/27 09:47:59;;;;;;;11.07;5.70;;;6.40;57.30;;;;;;5009141;28;81751;-71
2020/12/27 09:50:31;;;;;;;13.32;6.60;;;6.90;55.40;;;;;;5008970;28;83755;-71
2020/12/27 09:52:57;;;;;;;12.07;6.65;;;7.30;54.30;;;;;;5009004;28;82118;-70
2020/12/27 09:55:23;;;;;;;12.68;6.00;;;7.40;53.90;;;;;;5027182;28;80374;-72
2020/12/27 09:57:50;;;;;;;17.23;7.70;;;7.80;53.00;;;;;;5008748;28;80674;-74
2020/12/27 10:00:17;;;;;;;13.27;6.65;;;8.10;52.10;;;;;;5026741;28;80135;-71
2020/12/27 10:02:43;;;;;;;13.63;7.22;;;8.30;51.30;;;;;;5008805;28;82632;-62
2020/12/27 10:05:10;;;;;;;13.48;6.10;;;8.60;50.70;;;;;;5027262;28;80508;-64
2020/12/27 10:07:36;;;;;;;11.88;6.60;;;9.20;49.40;;;;;;5027436;28;79841;-63
2020/12/27 10:10:04;;;;;;;12.70;6.22;;;9.80;48.00;;;;;;5008894;28;83557;-67
2020/12/27 10:12:31;;;;;;;12.30;6.15;;;10.50;46.40;;;;;;5026999;28;80136;-67
2020/12/27 10:14:56;;;;;;;12.77;7.65;;;11.00;45.30;;;;;;5026730;28;81180;-67
2020/12/27 10:17:22;;;;;;;14.38;7.28;;;11.40;44.00;;;;;;5007850;28;83037;-70
2020/12/27 10:19:48;;;;;;;14.48;7.32;;;11.50;43.90;;;;;;5026877;28;79932;-69
2020/12/27 10:22:15;;;;;;;12.18;6.57;;;11.10;44.40;;;;;;5009035;28;81807;-69
2020/12/27 10:24:41;;;;;;;13.27;6.80;;;11.30;44.50;;;;;;5026936;28;80731;-78
2020/12/27 10:27:07;;;;;;;10.50;6.15;;;12.90;41.10;;;;;;5026979;28;80213;-77
2020/12/27 10:29:34;;;;;;;11.00;6.70;;;13.90;38.60;;;;;;5027203;28;79963;-84
2020/12/27 10:32:02;;;;;;;10.60;6.45;;;14.50;37.30;;;;;;5027164;28;80304;-82
2020/12/27 10:34:29;;;;;;;11.80;6.68;;;14.70;36.90;;;;;;5009026;28;82617;-73
2020/12/27 10:36:56;;;;;;;9.32;6.05;;;15.20;36.20;;;;;;5008811;28;80513;-72
2020/12/27 10:39:22;;;;;;;10.73;6.30;;;15.90;35.10;;;;;;5026947;28;80496;-74
2020/12/27 10:41:50;;;;;;;14.43;6.45;;;16.40;34.30;;;;;;5008369;28;81432;-72
2020/12/27 10:44:15;;;;;;;12.25;6.32;;;17.50;32.90;;;;;;5008345;28;80824;-81
2020/12/27 10:46:42;;;;;;;11.98;6.80;;;18.80;31.20;;;;;;5008007;28;81600;-79
2020/12/27 10:49:08;;;;;;;10.18;6.60;;;19.60;30.00;;;;;;5008169;28;82583;-72
2020/12/27 10:51:36;;;;;;;11.00;6.55;;;18.00;31.70;;;;;;5026376;28;80234;-78
2020/12/27 10:54:02;;;;;;;13.68;6.53;;;16.60;33.80;;;;;;5026865;28;79878;-68
2020/12/27 10:56:28;;;;;;;15.48;6.43;;;16.70;34.20;;;;;;5026645;28;79798;-67
2020/12/27 10:58:54;;;;;;;11.43;6.65;;;17.50;33.00;;;;;;5025966;28;80344;-67
2020/12/27 11:01:20;;;;;;;12.63;6.00;;;18.70;31.30;;;;;;5026953;28;79841;-65
2020/12/27 11:03:45;;;;;;;10.05;6.55;;;18.60;31.30;;;;;;5026353;28;80770;-65
2020/12/27 11:06:11;;;;;;;16.65;6.25;;;17.90;32.30;;;;;;5008279;28;81505;-65
2020/12/27 11:08:37;;;;;;;11.02;5.35;;;16.60;33.90;;;;;;5026193;28;80730;-67
2020/12/27 11:11:03;;;;;;;10.30;5.25;;;16.70;34.10;;;;;;5008148;28;80206;-74
2020/12/27 11:13:28;;;;;;;9.75;6.15;;;18.00;32.40;;;;;;5026318;28;80600;-72
2020/12/27 11:15:54;;;;;;;8.32;5.28;;;19.20;31.00;;;;;;5025832;28;80427;-75
2020/12/27 11:18:20;;;;;;;9.02;5.10;;;18.80;30.50;;;;;;5026149;28;80977;-77
2020/12/27 11:20:46;;;;;;;8.70;4.88;;;17.50;32.30;;;;;;5025498;28;80058;-77
2020/12/27 11:23:12;;;;;;;8.57;5.45;;;16.30;34.00;;;;;;5026414;28;80605;-75
2020/12/27 11:25:37;;;;;;;9.95;5.90;;;15.30;35.60;;;;;;5008044;28;81358;-80
2020/12/27 11:28:03;;;;;;;9.48;5.47;;;14.90;36.50;;;;;;5028764;28;80565;-82
2020/12/27 11:30:29;;;;;;;9.55;5.50;;;14.70;36.80;;;;;;5029404;28;81443;-74
2020/12/27 11:32:55;;;;;;;9.20;6.05;;;14.70;36.90;;;;;;5029675;28;80512;-80
2020/12/27 11:35:20;;;;;;;10.35;4.35;;;15.80;35.70;;;;;;5011435;28;81958;-76
2020/12/27 11:37:46;;;;;;;15.60;4.68;;;16.70;34.20;;;;;;5010796;28;82614;-73
2020/12/27 11:40:12;;;;;;;7.95;3.92;;;17.40;33.00;;;;;;5011077;28;81847;-75
2020/12/27 11:42:39;;;;;;;7.18;3.83;;;18.00;31.70;;;;;;5010978;28;81507;-80
2020/12/27 11:45:05;;;;;;;8.90;4.53;;;18.00;31.40;;;;;;5029231;28;80197;-80
2020/12/27 11:47:31;;;;;;;4.25;2.20;;;17.40;31.60;;;;;;5029656;28;80416;-79
2020/12/27 11:49:57;;;;;;;5.82;3.00;;;16.40;32.50;;;;;;5029672;28;80897;-77
2020/12/27 11:52:26;;;;;;;4.22;2.40;;;16.00;33.00;;;;;;5010869;28;79898;-73
2020/12/27 11:54:52;;;;;;;4.25;2.42;;;17.30;31.30;;;;;;5028955;28;79997;-70
2020/12/27 11:57:18;;;;;;;5.00;2.60;;;17.90;30.20;;;;;;5010990;28;80876;-70
2020/12/27 11:59:44;;;;;;;4.93;2.63;;;18.20;30.20;;;;;;5029482;28;80201;-80
2020/12/27 12:02:10;;;;;;;5.75;3.03;;;18.90;29.50;;;;;;5029375;28;80492;-79
2020/12/27 12:04:36;;;;;;;4.80;2.53;;;19.50;28.70;;;;;;5011270;28;80555;-74
2020/12/27 12:07:02;;;;;;;6.15;2.88;;;19.80;28.40;;;;;;5029777;28;80521;-82
2020/12/27 12:09:27;;;;;;;6.68;3.40;;;20.30;27.90;;;;;;5029622;28;79923;-81
2020/12/27 12:11:53;;;;;;;6.95;3.42;;;20.50;27.70;;;;;;5029237;28;80661;-77
2020/12/27 12:14:19;;;;;;;5.63;3.33;;;20.90;27.30;;;;;;5010319;28;82271;-69
2020/12/27 12:16:44;;;;;;;7.30;3.95;;;21.00;27.10;;;;;;5028972;28;80398;-70
2020/12/27 12:19:10;;;;;;;5.88;3.42;;;21.90;26.10;;;;;;5028904;28;80196;-80
2020/12/27 12:21:36;;;;;;;5.22;3.50;;;22.40;25.60;;;;;;5029249;28;80422;-78
2020/12/27 12:24:02;;;;;;;6.40;3.63;;;22.30;25.50;;;;;;5009965;28;82483;-69
2020/12/27 12:26:30;;;;;;;7.32;3.25;;;22.40;25.70;;;;;;5029343;28;80588;-77
2020/12/27 12:28:58;;;;;;;5.72;3.30;;;22.40;25.50;;;;;;5029101;28;80335;-71
2020/12/27 12:31:24;;;;;;;7.15;3.92;;;21.90;26.10;;;;;;5028833;28;80105;-67
2020/12/27 12:33:50;;;;;;;6.00;3.67;;;21.80;26.20;;;;;;5028994;28;80458;-67
2020/12/27 12:36:18;;;;;;;4.45;2.38;;;21.20;26.70;;;;;;5028420;28;81687;-74
2020/12/27 12:38:44;;;;;;;4.53;3.05;;;21.10;26.40;;;;;;5027656;28;81918;-67
2020/12/27 12:41:11;;;;;;;6.28;2.75;;;20.10;27.40;;;;;;5028199;28;81089;-73
2020/12/27 12:43:41;;;;;;;3.42;2.38;;;19.20;28.30;;;;;;5026758;28;80434;-72
2020/12/27 12:46:08;;;;;;;5.20;2.17;;;18.00;29.90;;;;;;5010227;28;83339;-72
2020/12/27 12:48:34;;;;;;;2.63;1.52;;;17.30;31.00;;;;;;5028414;28;79839;-75
2020/12/27 12:51:00;;;;;;;2.58;1.40;;;17.00;31.10;;;;;;5009844;28;83961;-75
2020/12/27 12:53:26;;;;;;;3.60;1.40;;;16.60;31.30;;;;;;5009517;28;83518;-75